This is the latest recevied weather packets stored in our database for station/object VE2CSM-13. If no packets are shown the sender has not sent any weather packets the latest 10 day(s).
| Time | Temp. | Humidity | Pressure | Rain* | Wind** | Luminosity | Snow |
|---|---|---|---|---|---|---|---|
| 1777252114 | 13.33° C | 49% | 1032.8 hPa | 0 mm | - | - | - |
| 1777248516 | 13.33° C | 49% | 1031.8 hPa | 0 mm | - | - | - |
| 1777246714 | 15° C | 47% | 1031.4 hPa | 0 mm | - | - | - |
| 1777244915 | 17.22° C | 38% | 1031.3 hPa | 0 mm | - | - | - |
| 1777241315 | 17.78° C | 37% | 1031.2 hPa | 0 mm | - | - | - |
| 1777237715 | 17.78° C | 37% | 1030.9 hPa | 0 mm | - | - | - |
| 1777235914 | 17.78° C | 36% | 1030.9 hPa | 0 mm | - | - | - |
| 1777234115 | 17.22° C | 37% | 1031 hPa | 0 mm | - | - | - |
| 1777232314 | 17.78° C | 37% | 1031.1 hPa | 0 mm | - | - | - |
| 1777230514 | 17.22° C | 37% | 1031.2 hPa | 0 mm | - | - | - |
| 1777226915 | 16.67° C | 39% | 1031.4 hPa | 0 mm | - | - | - |
| 1777223316 | 15.56° C | 40% | 1032.1 hPa | 0 mm | - | - | - |
| 1777221514 | 14.44° C | 40% | 1032.2 hPa | 0 mm | - | - | - |
| 1777219719 | 14.44° C | 41% | 1032.4 hPa | 0 mm | - | - | - |
| 1777217914 | 14.44° C | 42% | 1032.5 hPa | 0 mm | - | - | - |
| 1777216115 | 13.33° C | 44% | 1032.5 hPa | 0 mm | - | - | - |
| 1777212517 | 12.78° C | 50% | 1032.9 hPa | 0 mm | - | - | - |
| 1777208914 | 11.11° C | 53% | 1032.9 hPa | 0 mm | - | - | - |
| 1777207120 | 7.78° C | 61% | 1032.7 hPa | 0 mm | - | - | - |
| 1777205314 | 6.11° C | 67% | 1032.5 hPa | 0 mm | - | - | - |
| 1777203514 | 4.44° C | 72% | 1032.1 hPa | 0 mm | - | - | - |
| 1777201714 | 3.33° C | 76% | 1031.8 hPa | 0 mm | - | - | - |
| 1777199914 | 1.67° C | 80% | 1031.5 hPa | 0 mm | - | - | - |
| 1777199628 | 1.67° C | 80% | 1031.5 hPa | 0 mm | - | - | - |
| 1777199627 | 1.67° C | 80% | 1031.5 hPa | 0 mm | 0 m/s | - | - |
* Rain latest hour (hover to see other rain measurements)
** Current wind speed in m/s (hover to see current wind gust speed)